Time,TemperatureF,DewpointF,PressureIn,WindDirection,WindDirectionDegrees,WindSpeedMPH,WindSpeedGustMPH,Humidity,HourlyPrecipIn,Conditions,Clouds,dailyrainin,SoftwareType,DateUTC
2013-03-14 00:02:00,47.2,35.0,30.00,NW,317,0.0,1.0,63,0.00,,,0.00,weatherlink.com 1.10,2013-03-14 07:02:00,
2013-03-14 00:17:00,46.3,35.0,30.00,NW,317,0.0,1.0,66,0.00,,,0.00,weatherlink.com 1.10,2013-03-14 07:17:00,
2013-03-14 00:32:00,45.3,36.0,30.00,West,276,2.0,2.0,69,0.00,,,0.00,weatherlink.com 1.10,2013-03-14 07:32:00,
2013-03-14 00:47:00,44.6,36.0,30.00,WNW,286,0.0,1.0,71,0.00,,,0.00,weatherlink.com 1.10,2013-03-14 07:47:00,
2013-03-14 01:02:00,43.8,36.0,30.00,WNW,286,0.0,1.0,73,0.00,,,0.00,weatherlink.com 1.10,2013-03-14 08:02:00,
2013-03-14 01:17:00,43.0,36.0,30.00,WNW,290,0.0,1.0,75,0.00,,,0.00,weatherlink.com 1.10,2013-03-14 08:17:00,
2013-03-14 01:32:00,42.7,36.0,30.00,WNW,294,0.0,0.0,77,0.00,,,0.00,weatherlink.com 1.10,2013-03-14 08:32:00,
2013-03-14 01:47:00,41.9,36.0,30.00,WNW,294,1.0,2.0,78,0.00,,,0.00,weatherlink.com 1.10,2013-03-14 08:47:00,
2013-03-14 02:02:00,41.2,35.0,30.01,WSW,249,0.0,1.0,79,0.00,,,0.00,weatherlink.com 1.10,2013-03-14 09:02:00,
2013-03-14 02:17:00,40.8,35.0,30.01,SSE,161,0.0,2.0,81,0.00,,,0.00,weatherlink.com 1.10,2013-03-14 09:17:00,
2013-03-14 02:32:00,40.3,35.0,30.01,SSE,161,0.0,0.0,81,0.00,,,0.00,weatherlink.com 1.10,2013-03-14 09:32:00,
2013-03-14 02:47:00,39.6,35.0,30.01,SSE,161,0.0,0.0,82,0.00,,,0.00,weatherlink.com 1.10,2013-03-14 09:47:00,
2013-03-14 03:02:00,39.1,35.0,30.01,SSE,161,0.0,0.0,84,0.00,,,0.00,weatherlink.com 1.10,2013-03-14 10:02:00,
2013-03-14 03:17:00,38.8,35.0,30.01,SSE,161,0.0,1.0,85,0.00,,,0.00,weatherlink.com 1.10,2013-03-14 10:17:00,
2013-03-14 03:32:00,38.4,34.0,30.01,SSE,161,0.0,1.0,85,0.00,,,0.00,weatherlink.com 1.10,2013-03-14 10:32:00,
2013-03-14 03:47:00,38.3,35.0,30.01,SSE,161,0.0,1.0,86,0.00,,,0.00,weatherlink.com 1.10,2013-03-14 10:47:00,
2013-03-14 04:02:00,38.3,35.0,30.01,SSW,198,1.0,2.0,87,0.00,,,0.00,weatherlink.com 1.10,2013-03-14 11:02:00,
2013-03-14 04:17:00,38.2,35.0,30.01,SSW,198,0.0,0.0,87,0.00,,,0.00,weatherlink.com 1.10,2013-03-14 11:17:00,
2013-03-14 04:32:00,38.2,35.0,30.01,SSW,198,0.0,0.0,87,0.00,,,0.00,weatherlink.com 1.10,2013-03-14 11:32:00,
2013-03-14 04:47:00,38.2,35.0,30.01,SSW,198,1.0,2.0,87,0.00,,,0.00,weatherlink.com 1.10,2013-03-14 11:47:00,
2013-03-14 05:02:00,38.0,35.0,30.01,SSW,198,0.0,0.0,87,0.00,,,0.00,weatherlink.com 1.10,2013-03-14 12:02:00,
2013-03-14 05:17:00,37.8,34.0,30.01,SSW,198,0.0,1.0,87,0.00,,,0.00,weatherlink.com 1.10,2013-03-14 12:17:00,
2013-03-14 05:33:00,37.2,34.0,30.02,SSW,198,0.0,1.0,88,0.00,,,0.00,weatherlink.com 1.10,2013-03-14 12:33:00,
2013-03-14 05:47:00,36.8,34.0,30.02,SSW,195,0.0,2.0,89,0.00,,,0.00,weatherlink.com 1.10,2013-03-14 12:47:00,
2013-03-14 06:02:00,36.6,34.0,30.03,SSW,195,0.0,0.0,89,0.00,,,0.00,weatherlink.com 1.10,2013-03-14 13:02:00,
2013-03-14 06:17:00,36.5,34.0,30.03,SSW,195,0.0,1.0,90,0.00,,,0.00,weatherlink.com 1.10,2013-03-14 13:17:00,
2013-03-14 06:33:00,36.0,34.0,30.04,SSW,195,0.0,0.0,91,0.00,,,0.00,weatherlink.com 1.10,2013-03-14 13:33:00,
2013-03-14 06:48:00,36.1,34.0,30.04,SSW,195,0.0,1.0,91,0.00,,,0.00,weatherlink.com 1.10,2013-03-14 13:48:00,
2013-03-14 07:03:00,36.1,34.0,30.04,West,281,0.0,2.0,91,0.00,,,0.00,weatherlink.com 1.10,2013-03-14 14:03:00,
2013-03-14 07:18:00,36.4,34.0,30.05,West,281,1.0,1.0,92,0.00,,,0.00,weatherlink.com 1.10,2013-03-14 14:18:00,
2013-03-14 07:33:00,38.0,36.0,30.05,West,281,0.0,1.0,92,0.00,,,0.00,weatherlink.com 1.10,2013-03-14 14:33:00,
2013-03-14 07:48:00,41.1,38.0,30.05,West,281,0.0,1.0,88,0.00,,,0.00,weatherlink.com 1.10,2013-03-14 14:48:00,
2013-03-14 08:03:00,44.8,41.0,30.05,West,281,0.0,2.0,86,0.00,,,0.00,weatherlink.com 1.10,2013-03-14 15:03:00,
2013-03-14 08:18:00,49.6,42.0,30.06,SSE,156,0.0,2.0,74,0.00,,,0.00,weatherlink.com 1.10,2013-03-14 15:18:00,
2013-03-14 08:33:00,54.0,37.0,30.06,West,281,3.0,5.0,52,0.00,,,0.00,weatherlink.com 1.10,2013-03-14 15:33:00,
2013-03-14 08:48:00,59.1,36.0,30.06,WNW,294,2.0,7.0,42,0.00,,,0.00,weatherlink.com 1.10,2013-03-14 15:48:00,
2013-03-14 09:03:00,62.0,35.0,30.05,WNW,285,6.0,7.0,36,0.00,,,0.00,weatherlink.com 1.10,2013-03-14 16:03:00,
2013-03-14 09:18:00,63.9,34.0,30.05,WNW,302,3.0,7.0,33,0.00,,,0.00,weatherlink.com 1.10,2013-03-14 16:18:00,
2013-03-14 09:33:00,66.2,33.0,30.04,WNW,296,2.0,7.0,29,0.00,,,0.00,weatherlink.com 1.10,2013-03-14 16:33:00,
2013-03-14 09:48:00,68.3,35.0,30.04,WNW,290,2.0,6.0,29,0.00,,,0.00,weatherlink.com 1.10,2013-03-14 16:48:00,
2013-03-14 10:03:00,69.9,35.0,30.03,WNW,283,5.0,6.0,28,0.00,,,0.00,weatherlink.com 1.10,2013-03-14 17:03:00,
2013-03-14 10:18:00,72.4,36.0,30.03,SW,232,1.0,5.0,27,0.00,,,0.00,weatherlink.com 1.10,2013-03-14 17:18:00,
2013-03-14 10:33:00,74.1,32.0,30.02,NW,323,0.0,4.0,21,0.00,,,0.00,weatherlink.com 1.10,2013-03-14 17:33:00,
2013-03-14 10:48:00,75.8,34.0,30.01,WSW,248,3.0,5.0,22,0.00,,,0.00,weatherlink.com 1.10,2013-03-14 17:48:00,
2013-03-14 11:04:00,78.5,32.0,30.01,WNW,296,2.0,3.0,18,0.00,,,0.00,weatherlink.com 1.10,2013-03-14 18:04:00,
2013-03-14 11:19:00,77.6,32.0,30.00,ESE,119,3.0,4.0,19,0.00,,,0.00,weatherlink.com 1.10,2013-03-14 18:19:00,
2013-03-14 11:34:00,78.2,30.0,30.00,NNE,16,1.0,4.0,17,0.00,,,0.00,weatherlink.com 1.10,2013-03-14 18:34:00,
2013-03-14 11:49:00,80.0,33.0,29.98,SW,228,0.0,4.0,18,0.00,,,0.00,weatherlink.com 1.10,2013-03-14 18:49:00,
2013-03-14 12:04:00,82.7,35.0,29.98,South,169,2.0,5.0,18,0.00,,,0.00,weatherlink.com 1.10,2013-03-14 19:04:00,
2013-03-14 12:19:00,83.4,29.0,29.97,NW,321,0.0,5.0,14,0.00,,,0.00,weatherlink.com 1.10,2013-03-14 19:19:00,
2013-03-14 12:34:00,84.3,32.0,29.96,ESE,115,5.0,6.0,15,0.00,,,0.00,weatherlink.com 1.10,2013-03-14 19:34:00,
2013-03-14 12:49:00,84.6,35.0,29.95,SE,127,1.0,4.0,17,0.00,,,0.00,weatherlink.com 1.10,2013-03-14 19:49:00,
2013-03-14 13:04:00,85.9,33.0,29.94,ESE,110,4.0,8.0,15,0.00,,,0.00,weatherlink.com 1.10,2013-03-14 20:04:00,
2013-03-14 13:19:00,85.6,31.0,29.93,ENE,59,0.0,9.0,14,0.00,,,0.00,weatherlink.com 1.10,2013-03-14 20:19:00,
2013-03-14 13:34:00,86.6,28.0,29.92,SSE,165,0.0,6.0,12,0.00,,,0.00,weatherlink.com 1.10,2013-03-14 20:34:00,
2013-03-14 13:49:00,85.9,28.0,29.91,ENE,63,3.0,6.0,12,0.00,,,0.00,weatherlink.com 1.10,2013-03-14 20:49:00,
2013-03-14 14:04:00,86.0,30.0,29.90,SSW,204,3.0,5.0,13,0.00,,,0.00,weatherlink.com 1.10,2013-03-14 21:04:00,
2013-03-14 14:34:00,87.0,30.0,29.89,SSW,205,6.0,7.0,13,0.00,,,0.00,weatherlink.com 1.10,2013-03-14 21:34:00,
2013-03-14 14:49:00,88.0,25.0,29.88,ENE,57,1.0,8.0,10,0.00,,,0.00,weatherlink.com 1.10,2013-03-14 21:49:00,
2013-03-14 15:04:00,87.0,30.0,29.88,ESE,111,4.0,5.0,13,0.00,,,0.00,weatherlink.com 1.10,2013-03-14 22:04:00,
2013-03-14 15:19:00,87.4,29.0,29.87,East,95,2.0,5.0,12,0.00,,,0.00,weatherlink.com 1.10,2013-03-14 22:19:00,
2013-03-14 15:34:00,87.2,27.0,29.87,West,281,2.0,6.0,11,0.00,,,0.00,weatherlink.com 1.10,2013-03-14 22:34:00,
2013-03-14 15:49:00,88.1,27.0,29.86,West,266,3.0,5.0,11,0.00,,,0.00,weatherlink.com 1.10,2013-03-14 22:49:00,
2013-03-14 16:04:00,88.4,25.0,29.86,West,278,0.0,4.0,10,0.00,,,0.00,weatherlink.com 1.10,2013-03-14 23:04:00,
2013-03-14 16:19:00,88.3,30.0,29.86,South,181,2.0,7.0,12,0.00,,,0.00,weatherlink.com 1.10,2013-03-14 23:19:00,
2013-03-14 16:34:00,87.9,25.0,29.85,SW,232,2.0,6.0,10,0.00,,,0.00,weatherlink.com 1.10,2013-03-14 23:34:00,
2013-03-14 16:49:00,87.1,29.0,29.85,West,279,3.0,7.0,12,0.00,,,0.00,weatherlink.com 1.10,2013-03-14 23:49:00,
2013-03-14 17:04:00,86.6,28.0,29.84,WSW,254,0.0,4.0,12,0.00,,,0.00,weatherlink.com 1.10,2013-03-15 00:04:00,
2013-03-14 17:19:00,86.3,24.0,29.84,WSW,255,0.0,4.0,10,0.00,,,0.00,weatherlink.com 1.10,2013-03-15 00:19:00,
2013-03-14 17:34:00,85.4,29.0,29.84,SE,124,0.0,3.0,13,0.00,,,0.00,weatherlink.com 1.10,2013-03-15 00:34:00,
2013-03-14 18:04:00,83.3,34.0,29.84,WNW,302,0.0,2.0,17,0.00,,,0.00,weatherlink.com 1.10,2013-03-15 01:04:00,
2013-03-14 18:19:00,80.5,35.0,29.84,WSW,255,1.0,3.0,19,0.00,,,0.00,weatherlink.com 1.10,2013-03-15 01:19:00,
2013-03-14 18:34:00,77.1,34.0,29.84,West,268,0.0,4.0,21,0.00,,,0.00,weatherlink.com 1.10,2013-03-15 01:34:00,
2013-03-14 18:49:00,73.2,34.0,29.84,SSW,206,0.0,0.0,24,0.00,,,0.00,weatherlink.com 1.10,2013-03-15 01:49:00,
2013-03-14 19:05:00,69.8,39.0,29.84,SSW,206,1.0,1.0,32,0.00,,,0.00,weatherlink.com 1.10,2013-03-15 02:05:00,
2013-03-14 19:19:00,66.8,35.0,29.84,SSW,206,0.0,1.0,31,0.00,,,0.00,weatherlink.com 1.10,2013-03-15 02:19:00,
2013-03-14 19:34:00,64.3,38.0,29.84,SSW,206,0.0,0.0,38,0.00,,,0.00,weatherlink.com 1.10,2013-03-15 02:34:00,
2013-03-14 19:50:00,62.1,40.0,29.85,SSW,206,0.0,0.0,44,0.00,,,0.00,weatherlink.com 1.10,2013-03-15 02:50:00,
2013-03-14 20:05:00,59.9,38.0,29.85,SSW,206,0.0,0.0,44,0.00,,,0.00,weatherlink.com 1.10,2013-03-15 03:05:00,
2013-03-14 20:20:00,58.3,38.0,29.86,SE,140,2.0,2.0,48,0.00,,,0.00,weatherlink.com 1.10,2013-03-15 03:20:00,
2013-03-14 20:35:00,56.7,39.0,29.87,NNW,335,1.0,3.0,52,0.00,,,0.00,weatherlink.com 1.10,2013-03-15 03:35:00,
2013-03-14 20:50:00,55.9,39.0,29.88,East,79,2.0,3.0,53,0.00,,,0.00,weatherlink.com 1.10,2013-03-15 03:50:00,
2013-03-14 21:05:00,55.0,38.0,29.89,East,82,0.0,2.0,53,0.00,,,0.00,weatherlink.com 1.10,2013-03-15 04:05:00,
2013-03-14 21:20:00,54.2,39.0,29.89,East,82,0.0,0.0,57,0.00,,,0.00,weatherlink.com 1.10,2013-03-15 04:20:00,
2013-03-14 21:35:00,53.7,39.0,29.90,NE,34,1.0,2.0,57,0.00,,,0.00,weatherlink.com 1.10,2013-03-15 04:35:00,
2013-03-14 21:50:00,53.1,40.0,29.90,West,270,0.0,2.0,61,0.00,,,0.00,weatherlink.com 1.10,2013-03-15 04:50:00,
2013-03-14 22:05:00,52.2,38.0,29.90,NW,314,0.0,2.0,59,0.00,,,0.00,weatherlink.com 1.10,2013-03-15 05:05:00,
2013-03-14 22:20:00,51.1,38.0,29.91,NW,314,0.0,0.0,62,0.00,,,0.00,weatherlink.com 1.10,2013-03-15 05:20:00,
2013-03-14 22:35:00,50.3,39.0,29.91,NW,314,0.0,0.0,66,0.00,,,0.00,weatherlink.com 1.10,2013-03-15 05:35:00,
2013-03-14 22:50:00,49.7,39.0,29.91,NW,314,1.0,1.0,68,0.00,,,0.00,weatherlink.com 1.10,2013-03-15 05:50:00,
2013-03-14 23:05:00,49.2,39.0,29.91,North,5,0.0,2.0,69,0.00,,,0.00,weatherlink.com 1.10,2013-03-15 06:05:00,
2013-03-14 23:20:00,48.7,39.0,29.91,South,186,0.0,1.0,70,0.00,,,0.00,weatherlink.com 1.10,2013-03-15 06:20:00,
2013-03-14 23:35:00,48.4,39.0,29.92,South,186,0.0,1.0,70,0.00,,,0.00,weatherlink.com 1.10,2013-03-15 06:35:00,
2013-03-14 23:50:00,47.7,39.0,29.92,WSW,241,0.0,0.0,73,0.00,,,0.00,weatherlink.com 1.10,2013-03-15 06:50:00,